Terminal Aerodrome Forecast
Issued by NWS Boston, MA

Home | Current Version | Previous Version | Text Only | Print | Product List | Glossary On
Versions: 1 2 3 4 5 6 7 8 9 10 11 12 13 14 15 16
000
FTUS41 KBOX 211120
TAFORH
TAF
KORH 211120Z 2112/2212 35004KT P6SM SKC
     FM211800 18004KT P6SM SCT150
     FM220300 21008KT P6SM BKN120
     FM220600 22007KT P6SM VCSH BKN040
     FM220900 23007KT P6SM OVC040=

USA.gov is the U.S. government's official web portal to all federal, state and local government web resources and services.